Aviation Digital Data Service (ADDS)

Output produced by METARs form (0211 UTC 24 November 2017)
found at http://www.aviationweather.gov/adds/metars/
 
TAF EFJY 232329Z 2400/2424 16014KT 4000 BR BKN003 
     TEMPO 2400/2404 2000 
     TEMPO 2404/2408 5000 -RA BKN005 
     PROB30 2408/2424 0900 FG VV001
       
TAF EFTP 232329Z 2400/2424 15014KT 3000 BR BKN003 
     TEMPO 2400/2401 1200 BKN001 
     TEMPO 2401/2409 1500 -RADZ BKN001 
     BECMG 2409/2411 8000 BKN008 
     TEMPO 2413/2420 BKN012 
     BECMG 2421/2423 2500 BR BKN003
       
TAF EFKU 232336Z 2400/2424 15017KT 8000 BKN006 
     TEMPO 2400/2406 2000 -FZDZ BKN004 
     TEMPO 2406/2410 1400 SN BKN004 
     BECMG 2410/2411 1200 BR BKN002 
     TEMPO 2417/2424 3000 -RA BKN001
       
TAF EFTU 232335Z 2400/2424 15012KT 9999 OVC007 
     TEMPO 2400/2405 4000 -DZRA BKN003 
     BECMG 2405/2407 22010KT 8000 BKN020